Terminal Aerodrome Forecast
Issued by NWS

Home | Current Version | Previous Version | Text Only | Print | Product List | Glossary On
Versions: 1 2 3 4 5 6 7 8 9 10 11 12 13 14 15 16 17 18 19 20 21
000
FTUS43 KDMX 230530
TAFMCW
TAF
KMCW 230530Z 2306/2406 36011KT P6SM SCT035 OVC070
     FM231600 31013G21KT P6SM BKN180
     FM232000 31019G29KT P6SM BKN045
     FM240000 32012KT P6SM SCT050=

USA.gov is the U.S. government's official web portal to all federal, state and local government web resources and services.